AAL168 KFLL-KJAX
Flight info
| Callsign | AAL168 |
|---|---|
| Flight time | 0h 50m |
| Altitude | 30000 |
| Route | FRSBE2 STYMY ORL HAINY QUBEN2 |
| Aircraft | B77W/H-SDE1E2E3FGHIJ2J3J4J5M1RWXY/LB1D1 |
Departure
| Time | 2026-05-04 00:26 |
|---|---|
| Airport | Fort Lauderdale Hollywood International Airport (KFLL) |
Arrival
| Time | 2026-05-04 01:17 |
|---|---|
| Airport | Jacksonville International Airport (KJAX) |
| Time | Latitude | Longitude | Altitude | Speed | Heading |
|---|---|---|---|---|---|
| 2026-05-03 22:55 | 26.07391 | -80.13781 | 23 ft | 0 kts | 257° |
| 2026-05-03 23:16 | 26.07393 | -80.13776 | 23 ft | 3 kts | 257° |
| 2026-05-03 23:16 | 26.07397 | -80.13755 | 24 ft | 3 kts | 257° |
| 2026-05-03 23:16 | 26.07400 | -80.13734 | 27 ft | 3 kts | 275° |
| 2026-05-03 23:17 | 26.07395 | -80.13713 | 28 ft | 3 kts | 313° |
| 2026-05-03 23:17 | 26.07379 | -80.13701 | 28 ft | 2 kts | 348° |
| 2026-05-03 23:17 | 26.07376 | -80.13700 | 27 ft | 0 kts | 348° |
| 2026-05-03 23:27 | 26.07380 | -80.13701 | 27 ft | 1 kts | 348° |
| 2026-05-03 23:27 | 26.07401 | -80.13706 | 28 ft | 4 kts | 348° |
| 2026-05-03 23:27 | 26.07409 | -80.13708 | 28 ft | 2 kts | 348° |
| 2026-05-03 23:27 | 26.07441 | -80.13723 | 26 ft | 8 kts | 325° |
| 2026-05-03 23:28 | 26.07469 | -80.13796 | 25 ft | 13 kts | 274° |
| 2026-05-03 23:28 | 26.07484 | -80.13915 | 25 ft | 16 kts | 279° |
| 2026-05-03 23:28 | 26.07486 | -80.14035 | 27 ft | 15 kts | 269° |
| 2026-05-03 23:28 | 26.07487 | -80.14143 | 29 ft | 11 kts | 270° |
| 2026-05-03 23:29 | 26.07487 | -80.14184 | 29 ft | 0 kts | 270° |
| 2026-05-03 23:33 | 26.07487 | -80.14193 | 29 ft | 4 kts | 270° |
| 2026-05-03 23:33 | 26.07487 | -80.14246 | 28 ft | 8 kts | 270° |
| 2026-05-03 23:33 | 26.07487 | -80.14308 | 28 ft | 8 kts | 270° |
| 2026-05-03 23:33 | 26.07488 | -80.14370 | 29 ft | 8 kts | 270° |
| 2026-05-03 23:34 | 26.07488 | -80.14432 | 29 ft | 9 kts | 270° |
| 2026-05-03 23:34 | 26.07488 | -80.14508 | 30 ft | 11 kts | 270° |
| 2026-05-03 23:34 | 26.07488 | -80.14590 | 31 ft | 11 kts | 270° |
| 2026-05-03 23:34 | 26.07488 | -80.14693 | 29 ft | 16 kts | 270° |
| 2026-05-03 23:35 | 26.07489 | -80.14833 | 29 ft | 21 kts | 270° |
| 2026-05-03 23:35 | 26.07489 | -80.14996 | 25 ft | 22 kts | 270° |
| 2026-05-03 23:35 | 26.07489 | -80.15173 | 23 ft | 17 kts | 270° |
| 2026-05-03 23:35 | 26.07490 | -80.15326 | 21 ft | 22 kts | 270° |
| 2026-05-03 23:36 | 26.07492 | -80.15497 | 23 ft | 19 kts | 270° |
| 2026-05-03 23:36 | 26.07492 | -80.15553 | 24 ft | 0 kts | 270° |
| 2026-05-03 23:38 | 26.07492 | -80.15554 | 24 ft | 0 kts | 270° |
| 2026-05-03 23:38 | 26.07492 | -80.15557 | 24 ft | 1 kts | 270° |
| 2026-05-03 23:39 | 26.07492 | -80.15559 | 24 ft | 0 kts | 270° |
| 2026-05-03 23:39 | 26.07492 | -80.15560 | 24 ft | 1 kts | 270° |
| 2026-05-03 23:40 | 26.07492 | -80.15575 | 24 ft | 3 kts | 270° |
| 2026-05-03 23:40 | 26.07492 | -80.15613 | 24 ft | 6 kts | 270° |
| 2026-05-03 23:40 | 26.07492 | -80.15674 | 24 ft | 9 kts | 270° |
| 2026-05-03 23:40 | 26.07492 | -80.15703 | 24 ft | 0 kts | 270° |
| 2026-05-03 23:45 | 26.07493 | -80.15711 | 24 ft | 4 kts | 270° |
| 2026-05-03 23:45 | 26.07493 | -80.15751 | 24 ft | 7 kts | 270° |
| 2026-05-03 23:45 | 26.07493 | -80.15777 | 24 ft | 0 kts | 270° |
| 2026-05-03 23:48 | 26.07493 | -80.15789 | 25 ft | 2 kts | 270° |
| 2026-05-03 23:48 | 26.07493 | -80.15803 | 25 ft | 0 kts | 270° |
| 2026-05-03 23:50 | 26.07493 | -80.15806 | 25 ft | 2 kts | 270° |
| 2026-05-03 23:50 | 26.07494 | -80.15856 | 25 ft | 10 kts | 270° |
| 2026-05-03 23:51 | 26.07494 | -80.15875 | 26 ft | 0 kts | 270° |
| 2026-05-03 23:51 | 26.07494 | -80.15877 | 26 ft | 0 kts | 270° |
| 2026-05-03 23:51 | 26.07494 | -80.15880 | 26 ft | 0 kts | 270° |
| 2026-05-03 23:52 | 26.07494 | -80.15885 | 26 ft | 1 kts | 271° |
| 2026-05-03 23:52 | 26.07494 | -80.15891 | 26 ft | 1 kts | 271° |
| 2026-05-03 23:52 | 26.07494 | -80.15898 | 26 ft | 0 kts | 271° |
| 2026-05-03 23:54 | 26.07494 | -80.15900 | 26 ft | 2 kts | 271° |
| 2026-05-03 23:54 | 26.07494 | -80.15921 | 27 ft | 2 kts | 271° |
| 2026-05-03 23:54 | 26.07495 | -80.15934 | 27 ft | 0 kts | 270° |
| 2026-05-03 23:55 | 26.07495 | -80.15942 | 27 ft | 3 kts | 270° |
| 2026-05-03 23:55 | 26.07495 | -80.15971 | 28 ft | 3 kts | 270° |
| 2026-05-03 23:55 | 26.07495 | -80.15986 | 29 ft | 0 kts | 270° |
| 2026-05-04 00:00 | 26.07495 | -80.15987 | 29 ft | 1 kts | 270° |
| 2026-05-04 00:00 | 26.07495 | -80.16019 | 29 ft | 6 kts | 270° |
| 2026-05-04 00:00 | 26.07495 | -80.16061 | 30 ft | 5 kts | 270° |
| 2026-05-04 00:01 | 26.07495 | -80.16094 | 30 ft | 3 kts | 270° |
| 2026-05-04 00:01 | 26.07495 | -80.16105 | 30 ft | 0 kts | 270° |
| 2026-05-04 00:04 | 26.07495 | -80.16111 | 30 ft | 3 kts | 270° |
| 2026-05-04 00:04 | 26.07496 | -80.16157 | 30 ft | 7 kts | 270° |
| 2026-05-04 00:04 | 26.07496 | -80.16183 | 30 ft | 0 kts | 270° |
| 2026-05-04 00:05 | 26.07496 | -80.16185 | 30 ft | 1 kts | 270° |
| 2026-05-04 00:06 | 26.07496 | -80.16191 | 30 ft | 0 kts | 270° |
| 2026-05-04 00:06 | 26.07496 | -80.16192 | 30 ft | 1 kts | 270° |
| 2026-05-04 00:06 | 26.07496 | -80.16206 | 30 ft | 3 kts | 270° |
| 2026-05-04 00:06 | 26.07496 | -80.16215 | 30 ft | 0 kts | 270° |
| 2026-05-04 00:07 | 26.07496 | -80.16220 | 30 ft | 2 kts | 270° |
| 2026-05-04 00:07 | 26.07497 | -80.16249 | 29 ft | 5 kts | 270° |
| 2026-05-04 00:07 | 26.07497 | -80.16290 | 29 ft | 6 kts | 270° |
| 2026-05-04 00:08 | 26.07497 | -80.16341 | 29 ft | 7 kts | 270° |
| 2026-05-04 00:08 | 26.07497 | -80.16354 | 29 ft | 2 kts | 270° |
| 2026-05-04 00:08 | 26.07497 | -80.16370 | 29 ft | 3 kts | 270° |
| 2026-05-04 00:08 | 26.07497 | -80.16380 | 29 ft | 0 kts | 270° |
| 2026-05-04 00:11 | 26.07497 | -80.16382 | 29 ft | 1 kts | 270° |
| 2026-05-04 00:12 | 26.07498 | -80.16399 | 29 ft | 3 kts | 270° |
| 2026-05-04 00:12 | 26.07498 | -80.16419 | 29 ft | 0 kts | 270° |
| 2026-05-04 00:13 | 26.07498 | -80.16428 | 29 ft | 2 kts | 270° |
| 2026-05-04 00:13 | 26.07498 | -80.16453 | 29 ft | 3 kts | 270° |
| 2026-05-04 00:13 | 26.07498 | -80.16458 | 29 ft | 0 kts | 270° |
| 2026-05-04 00:17 | 26.07498 | -80.16459 | 29 ft | 0 kts | 270° |
| 2026-05-04 00:18 | 26.07498 | -80.16464 | 29 ft | 0 kts | 270° |
| 2026-05-04 00:19 | 26.07498 | -80.16474 | 29 ft | 2 kts | 270° |
| 2026-05-04 00:19 | 26.07498 | -80.16498 | 29 ft | 3 kts | 270° |
| 2026-05-04 00:19 | 26.07498 | -80.16530 | 29 ft | 0 kts | 270° |
| 2026-05-04 00:20 | 26.07499 | -80.16547 | 29 ft | 4 kts | 270° |
| 2026-05-04 00:20 | 26.07499 | -80.16587 | 29 ft | 0 kts | 276° |
| 2026-05-04 00:21 | 26.07500 | -80.16593 | 29 ft | 2 kts | 278° |
| 2026-05-04 00:21 | 26.07509 | -80.16624 | 28 ft | 0 kts | 298° |
| 2026-05-04 00:21 | 26.07515 | -80.16628 | 28 ft | 2 kts | 324° |
| 2026-05-04 00:21 | 26.07520 | -80.16631 | 28 ft | 0 kts | 336° |
| 2026-05-04 00:23 | 26.07523 | -80.16632 | 28 ft | 2 kts | 337° |
| 2026-05-04 00:23 | 26.07546 | -80.16638 | 28 ft | 5 kts | 350° |
| 2026-05-04 00:24 | 26.07561 | -80.16640 | 27 ft | 0 kts | 355° |
| 2026-05-04 00:24 | 26.07568 | -80.16640 | 27 ft | 3 kts | 355° |
| 2026-05-04 00:24 | 26.07609 | -80.16642 | 27 ft | 10 kts | 359° |
| 2026-05-04 00:25 | 26.07688 | -80.16627 | 27 ft | 12 kts | 48° |
| 2026-05-04 00:25 | 26.07695 | -80.16587 | 27 ft | 0 kts | 90° |
| 2026-05-04 00:26 | 26.07695 | -80.16525 | 28 ft | 41 kts | 90° |
| 2026-05-04 00:26 | 26.07692 | -80.15720 | 30 ft | 167 kts | 91° |
| 2026-05-04 00:26 | 26.07676 | -80.14158 | 898 ft | 211 kts | 89° |
| 2026-05-04 00:27 | 26.07690 | -80.12529 | 2220 ft | 217 kts | 88° |
| 2026-05-04 00:27 | 26.07736 | -80.10739 | 2538 ft | 246 kts | 85° |
| 2026-05-04 00:27 | 26.08189 | -80.08838 | 2960 ft | 263 kts | 59° |
| 2026-05-04 00:27 | 26.09411 | -80.07327 | 3667 ft | 266 kts | 38° |
| 2026-05-04 00:28 | 26.10963 | -80.06162 | 4000 ft | 272 kts | 23° |
| 2026-05-04 00:28 | 26.12725 | -80.05423 | 3985 ft | 269 kts | 17° |
| 2026-05-04 00:28 | 26.14501 | -80.04795 | 3988 ft | 266 kts | 11° |
| 2026-05-04 00:28 | 26.16329 | -80.04847 | 4005 ft | 266 kts | 340° |
| 2026-05-04 00:29 | 26.18065 | -80.05581 | 4017 ft | 270 kts | 338° |
| 2026-05-04 00:29 | 26.19840 | -80.06287 | 4007 ft | 271 kts | 339° |
| 2026-05-04 00:29 | 26.21559 | -80.07056 | 4156 ft | 264 kts | 324° |
| 2026-05-04 00:29 | 26.22786 | -80.08498 | 4954 ft | 263 kts | 298° |
| 2026-05-04 00:30 | 26.23504 | -80.10347 | 5881 ft | 261 kts | 289° |
| 2026-05-04 00:30 | 26.24166 | -80.12233 | 6880 ft | 261 kts | 289° |
| 2026-05-04 00:30 | 26.24843 | -80.14144 | 7823 ft | 263 kts | 289° |
| 2026-05-04 00:30 | 26.25530 | -80.16048 | 8704 ft | 266 kts | 291° |
| 2026-05-04 00:31 | 26.26415 | -80.17854 | 9501 ft | 275 kts | 298° |
| 2026-05-04 00:31 | 26.27457 | -80.19659 | 10331 ft | 280 kts | 300° |
| 2026-05-04 00:31 | 26.28560 | -80.21534 | 10731 ft | 303 kts | 300° |
| 2026-05-04 00:31 | 26.29770 | -80.23605 | 10946 ft | 333 kts | 300° |
| 2026-05-04 00:32 | 26.31064 | -80.25838 | 11457 ft | 350 kts | 300° |
| 2026-05-04 00:32 | 26.32395 | -80.28147 | 12321 ft | 358 kts | 300° |
| 2026-05-04 00:32 | 26.33741 | -80.30494 | 13399 ft | 362 kts | 299° |
| 2026-05-04 00:32 | 26.35101 | -80.32879 | 14400 ft | 366 kts | 299° |
| 2026-05-04 00:33 | 26.36468 | -80.35285 | 15357 ft | 370 kts | 298° |
| 2026-05-04 00:33 | 26.39247 | -80.40190 | 17264 ft | 378 kts | 298° |
| 2026-05-04 00:33 | 26.40662 | -80.42692 | 18194 ft | 383 kts | 297° |
| 2026-05-04 00:34 | 26.42088 | -80.45215 | 19007 ft | 387 kts | 297° |
| 2026-05-04 00:34 | 26.43534 | -80.47773 | 19789 ft | 391 kts | 297° |
| 2026-05-04 00:34 | 26.44989 | -80.50349 | 20624 ft | 395 kts | 297° |
| 2026-05-04 00:34 | 26.46461 | -80.52954 | 21444 ft | 396 kts | 297° |
| 2026-05-04 00:35 | 26.48241 | -80.55343 | 22040 ft | 414 kts | 312° |
| 2026-05-04 00:35 | 26.50695 | -80.57177 | 22704 ft | 435 kts | 327° |
| 2026-05-04 00:35 | 26.53586 | -80.58304 | 23405 ft | 446 kts | 336° |
| 2026-05-04 00:35 | 26.56611 | -80.59230 | 23997 ft | 453 kts | 336° |
| 2026-05-04 00:36 | 26.59669 | -80.60139 | 24609 ft | 457 kts | 336° |
| 2026-05-04 00:36 | 26.62746 | -80.61061 | 25250 ft | 459 kts | 336° |
| 2026-05-04 00:36 | 26.65837 | -80.62007 | 25872 ft | 462 kts | 336° |
| 2026-05-04 00:36 | 26.68940 | -80.62977 | 26496 ft | 465 kts | 335° |
| 2026-05-04 00:37 | 26.72061 | -80.63966 | 27133 ft | 467 kts | 335° |
| 2026-05-04 00:37 | 26.75182 | -80.64958 | 27951 ft | 465 kts | 335° |
| 2026-05-04 00:37 | 26.78278 | -80.65942 | 28846 ft | 461 kts | 335° |
| 2026-05-04 00:37 | 26.81354 | -80.66922 | 29715 ft | 460 kts | 334° |
| 2026-05-04 00:38 | 26.84437 | -80.67909 | 30063 ft | 460 kts | 334° |
| 2026-05-04 00:38 | 26.90561 | -80.69863 | 30047 ft | 455 kts | 334° |
| 2026-05-04 00:39 | 26.96497 | -80.72033 | 30047 ft | 450 kts | 330° |
| 2026-05-04 00:39 | 27.02378 | -80.74440 | 30048 ft | 452 kts | 330° |
| 2026-05-04 00:40 | 27.08293 | -80.76853 | 30052 ft | 453 kts | 330° |
| 2026-05-04 00:40 | 27.14224 | -80.79232 | 30045 ft | 453 kts | 331° |
| 2026-05-04 00:41 | 27.20165 | -80.81600 | 30055 ft | 453 kts | 331° |
| 2026-05-04 00:41 | 27.26109 | -80.83970 | 30046 ft | 453 kts | 331° |
| 2026-05-04 00:42 | 27.32044 | -80.86340 | 30049 ft | 452 kts | 331° |
| 2026-05-04 00:42 | 27.37954 | -80.88705 | 30045 ft | 452 kts | 330° |
| 2026-05-04 00:43 | 27.43873 | -80.91076 | 30061 ft | 451 kts | 330° |
| 2026-05-04 00:43 | 27.49786 | -80.93448 | 30048 ft | 451 kts | 330° |
| 2026-05-04 00:44 | 27.55689 | -80.95817 | 30050 ft | 450 kts | 330° |
| 2026-05-04 00:44 | 27.61579 | -80.98185 | 30053 ft | 449 kts | 330° |
| 2026-05-04 00:45 | 27.67433 | -81.00541 | 30052 ft | 449 kts | 330° |
| 2026-05-04 00:45 | 27.73314 | -81.02911 | 30052 ft | 449 kts | 330° |
| 2026-05-04 00:46 | 27.79176 | -81.05276 | 30087 ft | 449 kts | 330° |
| 2026-05-04 00:46 | 27.85066 | -81.07656 | 30064 ft | 449 kts | 330° |
| 2026-05-04 00:47 | 27.90955 | -81.10036 | 30063 ft | 449 kts | 330° |
| 2026-05-04 00:47 | 27.96836 | -81.12417 | 30056 ft | 449 kts | 330° |
| 2026-05-04 00:48 | 28.02716 | -81.14799 | 30077 ft | 449 kts | 330° |
| 2026-05-04 00:48 | 28.08653 | -81.17068 | 30125 ft | 451 kts | 332° |
| 2026-05-04 00:49 | 28.14620 | -81.19170 | 30088 ft | 452 kts | 333° |
| 2026-05-04 00:49 | 28.20600 | -81.21292 | 30085 ft | 451 kts | 332° |
| 2026-05-04 00:50 | 28.26568 | -81.23441 | 30084 ft | 449 kts | 332° |
| 2026-05-04 00:50 | 28.32501 | -81.25590 | 30083 ft | 448 kts | 332° |
| 2026-05-04 00:51 | 28.38431 | -81.27739 | 30098 ft | 448 kts | 332° |
| 2026-05-04 00:51 | 28.44376 | -81.29895 | 30080 ft | 448 kts | 332° |
| 2026-05-04 00:52 | 28.50309 | -81.32048 | 30089 ft | 447 kts | 332° |
| 2026-05-04 00:52 | 28.56438 | -81.33675 | 30094 ft | 460 kts | 343° |
| 2026-05-04 00:53 | 28.62877 | -81.34153 | 30089 ft | 465 kts | 348° |
| 2026-05-04 00:53 | 28.69353 | -81.34507 | 30144 ft | 466 kts | 348° |
| 2026-05-04 00:54 | 28.75813 | -81.34906 | 30090 ft | 463 kts | 347° |
| 2026-05-04 00:54 | 28.78992 | -81.35107 | 29951 ft | 454 kts | 347° |
| 2026-05-04 00:54 | 28.82126 | -81.35312 | 29437 ft | 452 kts | 347° |
| 2026-05-04 00:54 | 28.85236 | -81.35519 | 28996 ft | 446 kts | 347° |
| 2026-05-04 00:55 | 28.88277 | -81.35721 | 28528 ft | 442 kts | 347° |
| 2026-05-04 00:55 | 28.91332 | -81.35924 | 28056 ft | 438 kts | 347° |
| 2026-05-04 00:55 | 28.94353 | -81.36123 | 27601 ft | 434 kts | 347° |
| 2026-05-04 00:55 | 28.97338 | -81.36403 | 27178 ft | 425 kts | 343° |
| 2026-05-04 00:56 | 29.00211 | -81.36996 | 26709 ft | 415 kts | 337° |
| 2026-05-04 00:56 | 29.02948 | -81.37914 | 26238 ft | 407 kts | 333° |
| 2026-05-04 00:56 | 29.05637 | -81.38900 | 25789 ft | 404 kts | 333° |
| 2026-05-04 00:56 | 29.08306 | -81.39883 | 25338 ft | 402 kts | 333° |
| 2026-05-04 00:57 | 29.10949 | -81.40853 | 24890 ft | 400 kts | 333° |
| 2026-05-04 00:57 | 29.13593 | -81.41819 | 24451 ft | 398 kts | 333° |
| 2026-05-04 00:57 | 29.16227 | -81.42777 | 23985 ft | 397 kts | 333° |
| 2026-05-04 00:57 | 29.18859 | -81.43731 | 23510 ft | 396 kts | 334° |
| 2026-05-04 00:58 | 29.21480 | -81.44680 | 23020 ft | 394 kts | 334° |
| 2026-05-04 00:58 | 29.24059 | -81.45612 | 22563 ft | 391 kts | 334° |
| 2026-05-04 00:58 | 29.26641 | -81.46545 | 22146 ft | 388 kts | 334° |
| 2026-05-04 00:58 | 29.29211 | -81.47475 | 21703 ft | 386 kts | 334° |
| 2026-05-04 00:59 | 29.31766 | -81.48400 | 21241 ft | 384 kts | 334° |
| 2026-05-04 00:59 | 29.34305 | -81.49320 | 20812 ft | 382 kts | 334° |
| 2026-05-04 00:59 | 29.36828 | -81.50235 | 20376 ft | 380 kts | 334° |
| 2026-05-04 00:59 | 29.39343 | -81.51148 | 19951 ft | 378 kts | 334° |
| 2026-05-04 01:00 | 29.41838 | -81.52053 | 19526 ft | 376 kts | 334° |
| 2026-05-04 01:00 | 29.44334 | -81.52960 | 19104 ft | 375 kts | 334° |
| 2026-05-04 01:00 | 29.46816 | -81.53863 | 18680 ft | 374 kts | 334° |
| 2026-05-04 01:00 | 29.49296 | -81.54765 | 18189 ft | 373 kts | 334° |
| 2026-05-04 01:01 | 29.51767 | -81.55663 | 17720 ft | 372 kts | 334° |
| 2026-05-04 01:01 | 29.54226 | -81.56558 | 17269 ft | 369 kts | 334° |
| 2026-05-04 01:01 | 29.56665 | -81.57445 | 16848 ft | 367 kts | 335° |
| 2026-05-04 01:01 | 29.59090 | -81.58328 | 16402 ft | 364 kts | 335° |
| 2026-05-04 01:02 | 29.61468 | -81.59194 | 15947 ft | 363 kts | 335° |
| 2026-05-04 01:02 | 29.63880 | -81.60075 | 15445 ft | 362 kts | 335° |
| 2026-05-04 01:02 | 29.66274 | -81.60948 | 14998 ft | 360 kts | 335° |
| 2026-05-04 01:02 | 29.68652 | -81.61817 | 14564 ft | 357 kts | 335° |
| 2026-05-04 01:03 | 29.70982 | -81.62667 | 14138 ft | 355 kts | 335° |
| 2026-05-04 01:03 | 29.73325 | -81.63524 | 13682 ft | 353 kts | 335° |
| 2026-05-04 01:03 | 29.75630 | -81.64365 | 13207 ft | 350 kts | 336° |
| 2026-05-04 01:03 | 29.78004 | -81.65008 | 12812 ft | 352 kts | 346° |
| 2026-05-04 01:04 | 29.80435 | -81.65243 | 12470 ft | 349 kts | 351° |
| 2026-05-04 01:04 | 29.82841 | -81.65420 | 12123 ft | 344 kts | 351° |
| 2026-05-04 01:04 | 29.85209 | -81.65611 | 11788 ft | 339 kts | 351° |
| 2026-05-04 01:04 | 29.86790 | -81.65748 | 11563 ft | 336 kts | 352° |
| 2026-05-04 01:05 | 29.89108 | -81.65950 | 11229 ft | 331 kts | 352° |
| 2026-05-04 01:05 | 29.91389 | -81.66156 | 10896 ft | 327 kts | 352° |
| 2026-05-04 01:05 | 29.93560 | -81.66350 | 10560 ft | 304 kts | 352° |
| 2026-05-04 01:05 | 29.95523 | -81.66785 | 10267 ft | 283 kts | 337° |
| 2026-05-04 01:06 | 29.97325 | -81.67619 | 10031 ft | 278 kts | 335° |
| 2026-05-04 01:06 | 29.99137 | -81.68460 | 9733 ft | 276 kts | 336° |
| 2026-05-04 01:06 | 30.00891 | -81.69266 | 9446 ft | 273 kts | 336° |
| 2026-05-04 01:06 | 30.02642 | -81.70068 | 9175 ft | 270 kts | 336° |
| 2026-05-04 01:07 | 30.04378 | -81.70859 | 8908 ft | 267 kts | 336° |
| 2026-05-04 01:07 | 30.06100 | -81.71643 | 8645 ft | 265 kts | 336° |
| 2026-05-04 01:07 | 30.07807 | -81.72419 | 8386 ft | 263 kts | 337° |
| 2026-05-04 01:07 | 30.09500 | -81.73188 | 8129 ft | 261 kts | 337° |
| 2026-05-04 01:08 | 30.11183 | -81.73951 | 7874 ft | 259 kts | 337° |
| 2026-05-04 01:08 | 30.12853 | -81.74709 | 7624 ft | 258 kts | 337° |
| 2026-05-04 01:08 | 30.14528 | -81.75468 | 7384 ft | 258 kts | 337° |
| 2026-05-04 01:08 | 30.16198 | -81.76226 | 7124 ft | 258 kts | 337° |
| 2026-05-04 01:09 | 30.17872 | -81.76986 | 6865 ft | 258 kts | 338° |
| 2026-05-04 01:09 | 30.19530 | -81.77738 | 6600 ft | 258 kts | 338° |
| 2026-05-04 01:09 | 30.21204 | -81.78498 | 6329 ft | 258 kts | 338° |
| 2026-05-04 01:09 | 30.22866 | -81.79252 | 6061 ft | 257 kts | 338° |
| 2026-05-04 01:10 | 30.24531 | -81.80008 | 5825 ft | 257 kts | 338° |
| 2026-05-04 01:10 | 30.26190 | -81.80762 | 5567 ft | 256 kts | 337° |
| 2026-05-04 01:10 | 30.27846 | -81.81514 | 5314 ft | 255 kts | 337° |
| 2026-05-04 01:10 | 30.29488 | -81.82261 | 5059 ft | 253 kts | 338° |
| 2026-05-04 01:11 | 30.31127 | -81.83006 | 4812 ft | 252 kts | 338° |
| 2026-05-04 01:11 | 30.32736 | -81.83739 | 4534 ft | 251 kts | 337° |
| 2026-05-04 01:11 | 30.34355 | -81.84476 | 4272 ft | 249 kts | 338° |
| 2026-05-04 01:11 | 30.35966 | -81.85210 | 4023 ft | 248 kts | 338° |
| 2026-05-04 01:12 | 30.37571 | -81.85941 | 3795 ft | 248 kts | 338° |
| 2026-05-04 01:12 | 30.39166 | -81.86668 | 3561 ft | 245 kts | 339° |
| 2026-05-04 01:12 | 30.40737 | -81.87384 | 3319 ft | 241 kts | 339° |
| 2026-05-04 01:12 | 30.42315 | -81.87900 | 3039 ft | 230 kts | 2° |
| 2026-05-04 01:13 | 30.43773 | -81.87432 | 2902 ft | 213 kts | 37° |
| 2026-05-04 01:13 | 30.44664 | -81.86154 | 2682 ft | 200 kts | 69° |
| 2026-05-04 01:13 | 30.45135 | -81.84678 | 2483 ft | 191 kts | 72° |
| 2026-05-04 01:13 | 30.45578 | -81.83250 | 2287 ft | 183 kts | 73° |
| 2026-05-04 01:14 | 30.45992 | -81.81896 | 2098 ft | 174 kts | 73° |
| 2026-05-04 01:14 | 30.46384 | -81.80608 | 1957 ft | 171 kts | 73° |
| 2026-05-04 01:14 | 30.46784 | -81.79290 | 1711 ft | 171 kts | 73° |
| 2026-05-04 01:14 | 30.47163 | -81.78053 | 1456 ft | 155 kts | 73° |
| 2026-05-04 01:15 | 30.47494 | -81.76969 | 1294 ft | 139 kts | 75° |
| 2026-05-04 01:15 | 30.47812 | -81.75924 | 1130 ft | 135 kts | 73° |
| 2026-05-04 01:15 | 30.48128 | -81.74884 | 938 ft | 140 kts | 74° |
| 2026-05-04 01:15 | 30.48463 | -81.73814 | 783 ft | 141 kts | 73° |
| 2026-05-04 01:16 | 30.48809 | -81.72756 | 481 ft | 139 kts | 75° |
| 2026-05-04 01:16 | 30.49116 | -81.71712 | 333 ft | 136 kts | 78° |
| 2026-05-04 01:16 | 30.49423 | -81.70650 | 219 ft | 143 kts | 71° |
| 2026-05-04 01:16 | 30.49759 | -81.69572 | 51 ft | 144 kts | 72° |
| 2026-05-04 01:17 | 30.50046 | -81.68612 | 43 ft | 103 kts | 71° |
| 2026-05-04 01:17 | 30.50219 | -81.68036 | 44 ft | 59 kts | 70° |
| 2026-05-04 01:17 | 30.50329 | -81.67662 | 40 ft | 18 kts | 85° |
| 2026-05-04 01:17 | 30.50241 | -81.67570 | 37 ft | 20 kts | 158° |
| 2026-05-04 01:18 | 30.50154 | -81.67548 | 37 ft | 11 kts | 193° |
| 2026-05-04 01:18 | 30.50105 | -81.67616 | 38 ft | 12 kts | 244° |
| 2026-05-04 01:18 | 30.50072 | -81.67718 | 40 ft | 14 kts | 250° |
| 2026-05-04 01:18 | 30.50036 | -81.67832 | 41 ft | 17 kts | 250° |
| 2026-05-04 01:19 | 30.49996 | -81.67963 | 42 ft | 16 kts | 251° |
| 2026-05-04 01:19 | 30.49957 | -81.68092 | 44 ft | 18 kts | 251° |
| 2026-05-04 01:19 | 30.49916 | -81.68227 | 42 ft | 19 kts | 250° |
| 2026-05-04 01:19 | 30.49888 | -81.68322 | 40 ft | 13 kts | 250° |
| 2026-05-04 01:20 | 30.49852 | -81.68427 | 41 ft | 15 kts | 237° |
| 2026-05-04 01:20 | 30.49771 | -81.68470 | 41 ft | 14 kts | 191° |
| 2026-05-04 01:20 | 30.49663 | -81.68493 | 41 ft | 17 kts | 190° |
| 2026-05-04 01:20 | 30.49537 | -81.68519 | 42 ft | 19 kts | 188° |
| 2026-05-04 01:21 | 30.49420 | -81.68489 | 44 ft | 17 kts | 151° |
| 2026-05-04 01:21 | 30.49341 | -81.68453 | 46 ft | 0 kts | 172° |
| 2026-05-04 01:21 | 30.49335 | -81.68455 | 46 ft | 2 kts | 187° |
| 2026-05-04 01:21 | 30.49318 | -81.68464 | 46 ft | 4 kts | 209° |
| 2026-05-04 01:22 | 30.49303 | -81.68490 | 46 ft | 0 kts | 251° |